sensor_id;sensor_type;location;lat;lon;timestamp;P1;durP1;ratioP1;P2;durP2;ratioP2
66485;SDS011;53303;47.476;8.084;2022-10-15T00:00:05;3.10;;;0.85;;
66485;SDS011;53303;47.476;8.084;2022-10-15T00:02:32;3.95;;;0.93;;
66485;SDS011;53303;47.476;8.084;2022-10-15T00:04:57;3.30;;;0.80;;
66485;SDS011;53303;47.476;8.084;2022-10-15T00:07:23;2.40;;;0.65;;
66485;SDS011;53303;47.476;8.084;2022-10-15T00:09:48;2.35;;;1.00;;
66485;SDS011;53303;47.476;8.084;2022-10-15T00:12:13;1.95;;;1.00;;
66485;SDS011;53303;47.476;8.084;2022-10-15T00:14:39;2.22;;;0.90;;
66485;SDS011;53303;47.476;8.084;2022-10-15T00:17:07;3.50;;;0.60;;
66485;SDS011;53303;47.476;8.084;2022-10-15T00:19:33;1.00;;;0.47;;
66485;SDS011;53303;47.476;8.084;2022-10-15T00:21:58;2.10;;;1.02;;
66485;SDS011;53303;47.476;8.084;2022-10-15T00:24:23;0.90;;;0.60;;
66485;SDS011;53303;47.476;8.084;2022-10-15T00:26:49;1.77;;;0.70;;
66485;SDS011;53303;47.476;8.084;2022-10-15T00:29:14;1.73;;;0.63;;
66485;SDS011;53303;47.476;8.084;2022-10-15T00:31:40;0.98;;;0.38;;
66485;SDS011;53303;47.476;8.084;2022-10-15T00:34:05;1.80;;;0.40;;
66485;SDS011;53303;47.476;8.084;2022-10-15T00:36:32;1.73;;;0.50;;
66485;SDS011;53303;47.476;8.084;2022-10-15T00:38:59;1.70;;;0.45;;
66485;SDS011;53303;47.476;8.084;2022-10-15T00:41:35;1.05;;;0.45;;
66485;SDS011;53303;47.476;8.084;2022-10-15T00:46:49;1.63;;;0.40;;
66485;SDS011;53303;47.476;8.084;2022-10-15T00:51:43;0.57;;;0.30;;
66485;SDS011;53303;47.476;8.084;2022-10-15T00:54:13;1.17;;;0.50;;
66485;SDS011;53303;47.476;8.084;2022-10-15T00:56:42;0.80;;;0.40;;
66485;SDS011;53303;47.476;8.084;2022-10-15T00:59:12;1.75;;;0.80;;
66485;SDS011;53303;47.476;8.084;2022-10-15T01:01:39;1.67;;;0.60;;
66485;SDS011;53303;47.476;8.084;2022-10-15T01:04:08;1.10;;;0.52;;
66485;SDS011;53303;47.476;8.084;2022-10-15T01:06:35;1.33;;;0.50;;
66485;SDS011;53303;47.476;8.084;2022-10-15T01:09:01;0.77;;;0.43;;
66485;SDS011;53303;47.476;8.084;2022-10-15T01:14:20;0.95;;;0.57;;
66485;SDS011;53303;47.476;8.084;2022-10-15T01:22:33;1.17;;;0.40;;
66485;SDS011;53303;47.476;8.084;2022-10-15T01:30:41;1.05;;;0.60;;
66485;SDS011;53303;47.476;8.084;2022-10-15T01:38:45;0.40;;;0.30;;
66485;SDS011;53303;47.476;8.084;2022-10-15T01:46:42;0.60;;;0.60;;
66485;SDS011;53303;47.476;8.084;2022-10-15T01:49:13;1.30;;;0.32;;
66485;SDS011;53303;47.476;8.084;2022-10-15T01:51:45;0.93;;;0.40;;
66485;SDS011;53303;47.476;8.084;2022-10-15T01:54:15;0.98;;;0.52;;
66485;SDS011;53303;47.476;8.084;2022-10-15T01:56:46;0.65;;;0.55;;
66485;SDS011;53303;47.476;8.084;2022-10-15T01:59:15;1.08;;;0.40;;
66485;SDS011;53303;47.476;8.084;2022-10-15T02:01:44;0.80;;;0.32;;
66485;SDS011;53303;47.476;8.084;2022-10-15T02:04:24;0.70;;;0.50;;
66485;SDS011;53303;47.476;8.084;2022-10-15T02:07:08;0.43;;;0.40;;
66485;SDS011;53303;47.476;8.084;2022-10-15T02:14:56;0.73;;;0.40;;
66485;SDS011;53303;47.476;8.084;2022-10-15T02:20:37;0.55;;;0.30;;
66485;SDS011;53303;47.476;8.084;2022-10-15T02:23:12;0.32;;;0.32;;
66485;SDS011;53303;47.476;8.084;2022-10-15T02:25:46;0.50;;;0.40;;
66485;SDS011;53303;47.476;8.084;2022-10-15T02:28:19;0.50;;;0.50;;
66485;SDS011;53303;47.476;8.084;2022-10-15T02:30:50;0.40;;;0.40;;
66485;SDS011;53303;47.476;8.084;2022-10-15T02:33:20;0.68;;;0.68;;
66485;SDS011;53303;47.476;8.084;2022-10-15T02:35:47;1.95;;;0.40;;
66485;SDS011;53303;47.476;8.084;2022-10-15T02:38:15;0.95;;;0.43;;
66485;SDS011;53303;47.476;8.084;2022-10-15T02:40:47;0.57;;;0.30;;
66485;SDS011;53303;47.476;8.084;2022-10-15T02:43:17;1.02;;;0.40;;
66485;SDS011;53303;47.476;8.084;2022-10-15T02:45:44;0.93;;;0.60;;
66485;SDS011;53303;47.476;8.084;2022-10-15T02:48:09;1.25;;;0.60;;
66485;SDS011;53303;47.476;8.084;2022-10-15T02:50:35;0.70;;;0.50;;
66485;SDS011;53303;47.476;8.084;2022-10-15T02:53:00;1.42;;;0.40;;
66485;SDS011;53303;47.476;8.084;2022-10-15T02:55:26;0.88;;;0.40;;
66485;SDS011;53303;47.476;8.084;2022-10-15T02:57:51;1.20;;;0.60;;
66485;SDS011;53303;47.476;8.084;2022-10-15T03:00:19;1.15;;;0.60;;
66485;SDS011;53303;47.476;8.084;2022-10-15T03:02:44;1.65;;;0.68;;
66485;SDS011;53303;47.476;8.084;2022-10-15T03:05:11;1.48;;;0.70;;
66485;SDS011;53303;47.476;8.084;2022-10-15T03:07:36;1.42;;;0.40;;
66485;SDS011;53303;47.476;8.084;2022-10-15T03:10:02;0.93;;;0.52;;
66485;SDS011;53303;47.476;8.084;2022-10-15T03:12:30;3.10;;;0.70;;
66485;SDS011;53303;47.476;8.084;2022-10-15T03:14:56;1.13;;;0.50;;
66485;SDS011;53303;47.476;8.084;2022-10-15T03:17:21;1.38;;;0.60;;
66485;SDS011;53303;47.476;8.084;2022-10-15T03:19:47;0.82;;;0.50;;
66485;SDS011;53303;47.476;8.084;2022-10-15T03:22:12;6.63;;;1.95;;
66485;SDS011;53303;47.476;8.084;2022-10-15T03:24:37;0.75;;;0.52;;
66485;SDS011;53303;47.476;8.084;2022-10-15T03:27:03;2.17;;;0.80;;
66485;SDS011;53303;47.476;8.084;2022-10-15T03:29:28;0.60;;;0.40;;
66485;SDS011;53303;47.476;8.084;2022-10-15T03:31:54;2.17;;;0.52;;
66485;SDS011;53303;47.476;8.084;2022-10-15T03:34:19;0.35;;;0.32;;
66485;SDS011;53303;47.476;8.084;2022-10-15T03:36:44;1.50;;;0.70;;
66485;SDS011;53303;47.476;8.084;2022-10-15T03:39:10;0.90;;;0.60;;
66485;SDS011;53303;47.476;8.084;2022-10-15T03:41:37;1.17;;;0.80;;
66485;SDS011;53303;47.476;8.084;2022-10-15T03:44:03;0.90;;;0.47;;
66485;SDS011;53303;47.476;8.084;2022-10-15T03:46:29;1.30;;;0.70;;
66485;SDS011;53303;47.476;8.084;2022-10-15T03:48:58;1.02;;;0.40;;
66485;SDS011;53303;47.476;8.084;2022-10-15T03:51:24;1.30;;;0.55;;
66485;SDS011;53303;47.476;8.084;2022-10-15T03:53:50;0.45;;;0.45;;
66485;SDS011;53303;47.476;8.084;2022-10-15T03:56:15;0.52;;;0.40;;
66485;SDS011;53303;47.476;8.084;2022-10-15T03:58:41;2.17;;;0.50;;
66485;SDS011;53303;47.476;8.084;2022-10-15T04:01:09;1.25;;;0.50;;
66485;SDS011;53303;47.476;8.084;2022-10-15T04:03:39;1.10;;;0.52;;
66485;SDS011;53303;47.476;8.084;2022-10-15T04:06:05;0.98;;;0.52;;
66485;SDS011;53303;47.476;8.084;2022-10-15T04:08:33;0.82;;;0.50;;
66485;SDS011;53303;47.476;8.084;2022-10-15T04:10:58;0.98;;;0.52;;
66485;SDS011;53303;47.476;8.084;2022-10-15T04:13:24;2.30;;;0.50;;
66485;SDS011;53303;47.476;8.084;2022-10-15T04:15:51;0.55;;;0.43;;
66485;SDS011;53303;47.476;8.084;2022-10-15T04:18:19;1.27;;;0.60;;
66485;SDS011;53303;47.476;8.084;2022-10-15T04:20:48;0.65;;;0.50;;
66485;SDS011;53303;47.476;8.084;2022-10-15T04:23:14;1.20;;;0.70;;
66485;SDS011;53303;47.476;8.084;2022-10-15T04:25:40;0.85;;;0.68;;
66485;SDS011;53303;47.476;8.084;2022-10-15T04:28:05;1.38;;;0.80;;
66485;SDS011;53303;47.476;8.084;2022-10-15T04:30:31;1.27;;;0.60;;
66485;SDS011;53303;47.476;8.084;2022-10-15T04:32:56;1.38;;;0.90;;
66485;SDS011;53303;47.476;8.084;2022-10-15T04:35:25;2.13;;;0.70;;
66485;SDS011;53303;47.476;8.084;2022-10-15T04:37:53;1.60;;;0.60;;
66485;SDS011;53303;47.476;8.084;2022-10-15T04:40:21;1.83;;;0.55;;
66485;SDS011;53303;47.476;8.084;2022-10-15T04:42:48;2.35;;;0.80;;
66485;SDS011;53303;47.476;8.084;2022-10-15T04:45:16;2.10;;;0.63;;
66485;SDS011;53303;47.476;8.084;2022-10-15T04:47:41;1.88;;;0.57;;
66485;SDS011;53303;47.476;8.084;2022-10-15T04:50:07;1.45;;;0.57;;
66485;SDS011;53303;47.476;8.084;2022-10-15T04:52:33;1.15;;;0.60;;
66485;SDS011;53303;47.476;8.084;2022-10-15T04:54:59;2.42;;;0.75;;
66485;SDS011;53303;47.476;8.084;2022-10-15T04:57:26;2.13;;;0.70;;
66485;SDS011;53303;47.476;8.084;2022-10-15T04:59:52;1.65;;;0.93;;
66485;SDS011;53303;47.476;8.084;2022-10-15T05:02:17;1.10;;;0.55;;
66485;SDS011;53303;47.476;8.084;2022-10-15T05:04:43;1.73;;;0.70;;
66485;SDS011;53303;47.476;8.084;2022-10-15T05:07:08;2.97;;;0.90;;
66485;SDS011;53303;47.476;8.084;2022-10-15T05:09:33;1.00;;;0.60;;
66485;SDS011;53303;47.476;8.084;2022-10-15T05:11:59;1.85;;;0.70;;
66485;SDS011;53303;47.476;8.084;2022-10-15T05:14:24;1.33;;;0.65;;
66485;SDS011;53303;47.476;8.084;2022-10-15T05:16:50;1.90;;;0.73;;
66485;SDS011;53303;47.476;8.084;2022-10-15T05:19:15;2.20;;;0.60;;
66485;SDS011;53303;47.476;8.084;2022-10-15T05:21:41;1.40;;;0.70;;
66485;SDS011;53303;47.476;8.084;2022-10-15T05:24:08;2.20;;;0.60;;
66485;SDS011;53303;47.476;8.084;2022-10-15T05:26:33;2.80;;;0.80;;
66485;SDS011;53303;47.476;8.084;2022-10-15T05:28:59;2.10;;;0.60;;
66485;SDS011;53303;47.476;8.084;2022-10-15T05:31:26;2.08;;;0.75;;
66485;SDS011;53303;47.476;8.084;2022-10-15T05:33:53;3.20;;;0.70;;
66485;SDS011;53303;47.476;8.084;2022-10-15T05:36:23;2.70;;;0.77;;
66485;SDS011;53303;47.476;8.084;2022-10-15T05:38:54;1.58;;;0.73;;
66485;SDS011;53303;47.476;8.084;2022-10-15T05:41:23;3.08;;;0.60;;
66485;SDS011;53303;47.476;8.084;2022-10-15T05:43:50;1.70;;;0.68;;
66485;SDS011;53303;47.476;8.084;2022-10-15T05:46:17;1.52;;;0.68;;
66485;SDS011;53303;47.476;8.084;2022-10-15T05:48:46;2.85;;;0.80;;
66485;SDS011;53303;47.476;8.084;2022-10-15T05:51:13;1.73;;;0.52;;
66485;SDS011;53303;47.476;8.084;2022-10-15T05:53:38;1.25;;;0.80;;
66485;SDS011;53303;47.476;8.084;2022-10-15T05:56:04;2.03;;;0.65;;
66485;SDS011;53303;47.476;8.084;2022-10-15T05:58:32;2.75;;;0.90;;
66485;SDS011;53303;47.476;8.084;2022-10-15T06:00:59;3.30;;;0.85;;
66485;SDS011;53303;47.476;8.084;2022-10-15T06:03:26;1.98;;;0.63;;
66485;SDS011;53303;47.476;8.084;2022-10-15T06:05:52;1.42;;;0.65;;
66485;SDS011;53303;47.476;8.084;2022-10-15T06:08:18;2.55;;;1.00;;
66485;SDS011;53303;47.476;8.084;2022-10-15T06:10:46;2.92;;;0.70;;
66485;SDS011;53303;47.476;8.084;2022-10-15T06:13:12;1.88;;;0.60;;
66485;SDS011;53303;47.476;8.084;2022-10-15T06:15:39;2.17;;;0.73;;
66485;SDS011;53303;47.476;8.084;2022-10-15T06:18:08;2.60;;;0.90;;
66485;SDS011;53303;47.476;8.084;2022-10-15T06:20:35;2.10;;;0.70;;
66485;SDS011;53303;47.476;8.084;2022-10-15T06:23:02;2.92;;;0.70;;
66485;SDS011;53303;47.476;8.084;2022-10-15T06:25:28;3.63;;;0.90;;
66485;SDS011;53303;47.476;8.084;2022-10-15T06:27:54;4.15;;;0.80;;
66485;SDS011;53303;47.476;8.084;2022-10-15T06:30:19;5.65;;;1.05;;
66485;SDS011;53303;47.476;8.084;2022-10-15T06:32:48;10.73;;;1.38;;
66485;SDS011;53303;47.476;8.084;2022-10-15T06:35:14;8.77;;;1.23;;
66485;SDS011;53303;47.476;8.084;2022-10-15T06:37:41;7.43;;;0.90;;
66485;SDS011;53303;47.476;8.084;2022-10-15T06:40:06;5.25;;;1.27;;
66485;SDS011;53303;47.476;8.084;2022-10-15T06:42:33;3.33;;;0.70;;
66485;SDS011;53303;47.476;8.084;2022-10-15T06:44:58;7.28;;;1.17;;
66485;SDS011;53303;47.476;8.084;2022-10-15T06:47:23;3.72;;;1.02;;
66485;SDS011;53303;47.476;8.084;2022-10-15T06:49:49;4.03;;;0.90;;
66485;SDS011;53303;47.476;8.084;2022-10-15T06:52:14;4.07;;;1.10;;
66485;SDS011;53303;47.476;8.084;2022-10-15T06:54:40;4.22;;;1.00;;
66485;SDS011;53303;47.476;8.084;2022-10-15T06:57:05;3.47;;;0.73;;
66485;SDS011;53303;47.476;8.084;2022-10-15T06:59:30;2.70;;;0.82;;
66485;SDS011;53303;47.476;8.084;2022-10-15T07:01:56;4.03;;;1.00;;
66485;SDS011;53303;47.476;8.084;2022-10-15T07:04:22;4.13;;;0.80;;
66485;SDS011;53303;47.476;8.084;2022-10-15T07:06:48;3.88;;;0.70;;
66485;SDS011;53303;47.476;8.084;2022-10-15T07:09:13;1.58;;;0.75;;
66485;SDS011;53303;47.476;8.084;2022-10-15T07:11:39;2.55;;;1.00;;
66485;SDS011;53303;47.476;8.084;2022-10-15T07:14:06;1.70;;;0.60;;
66485;SDS011;53303;47.476;8.084;2022-10-15T07:16:32;2.78;;;1.00;;
66485;SDS011;53303;47.476;8.084;2022-10-15T07:18:57;2.90;;;0.85;;
66485;SDS011;53303;47.476;8.084;2022-10-15T07:21:24;3.80;;;0.90;;
66485;SDS011;53303;47.476;8.084;2022-10-15T07:23:50;4.10;;;1.15;;
66485;SDS011;53303;47.476;8.084;2022-10-15T07:26:15;2.95;;;0.90;;
66485;SDS011;53303;47.476;8.084;2022-10-15T07:28:41;3.33;;;1.15;;
66485;SDS011;53303;47.476;8.084;2022-10-15T07:31:06;3.33;;;1.15;;
66485;SDS011;53303;47.476;8.084;2022-10-15T07:33:34;3.08;;;1.20;;
66485;SDS011;53303;47.476;8.084;2022-10-15T07:36:06;2.75;;;1.00;;
66485;SDS011;53303;47.476;8.084;2022-10-15T07:38:38;2.53;;;1.40;;
66485;SDS011;53303;47.476;8.084;2022-10-15T07:41:07;7.13;;;1.45;;
66485;SDS011;53303;47.476;8.084;2022-10-15T07:43:34;2.88;;;1.15;;
66485;SDS011;53303;47.476;8.084;2022-10-15T07:46:00;3.15;;;1.30;;
66485;SDS011;53303;47.476;8.084;2022-10-15T07:48:29;3.47;;;1.10;;
66485;SDS011;53303;47.476;8.084;2022-10-15T07:50:58;3.67;;;1.15;;
66485;SDS011;53303;47.476;8.084;2022-10-15T07:53:28;2.65;;;1.20;;
66485;SDS011;53303;47.476;8.084;2022-10-15T07:56:04;2.15;;;1.08;;
66485;SDS011;53303;47.476;8.084;2022-10-15T07:58:35;3.03;;;1.23;;
66485;SDS011;53303;47.476;8.084;2022-10-15T08:01:02;4.47;;;1.70;;
66485;SDS011;53303;47.476;8.084;2022-10-15T08:03:29;3.30;;;1.55;;
66485;SDS011;53303;47.476;8.084;2022-10-15T08:06:04;5.32;;;1.45;;
66485;SDS011;53303;47.476;8.084;2022-10-15T08:08:32;3.25;;;1.40;;
66485;SDS011;53303;47.476;8.084;2022-10-15T08:11:02;4.20;;;1.67;;
66485;SDS011;53303;47.476;8.084;2022-10-15T08:13:32;4.25;;;1.50;;
66485;SDS011;53303;47.476;8.084;2022-10-15T08:15:57;3.47;;;1.40;;
66485;SDS011;53303;47.476;8.084;2022-10-15T08:18:27;3.25;;;1.10;;
66485;SDS011;53303;47.476;8.084;2022-10-15T08:20:53;3.80;;;1.30;;
66485;SDS011;53303;47.476;8.084;2022-10-15T08:23:18;3.28;;;1.30;;
66485;SDS011;53303;47.476;8.084;2022-10-15T08:25:44;4.05;;;1.48;;
66485;SDS011;53303;47.476;8.084;2022-10-15T08:28:15;3.58;;;1.40;;
66485;SDS011;53303;47.476;8.084;2022-10-15T08:30:40;3.33;;;1.30;;
66485;SDS011;53303;47.476;8.084;2022-10-15T08:33:06;3.05;;;1.25;;
66485;SDS011;53303;47.476;8.084;2022-10-15T08:35:31;4.63;;;1.60;;
66485;SDS011;53303;47.476;8.084;2022-10-15T08:38:00;3.92;;;1.45;;
66485;SDS011;53303;47.476;8.084;2022-10-15T08:40:26;3.45;;;1.33;;
66485;SDS011;53303;47.476;8.084;2022-10-15T08:42:53;3.20;;;1.38;;
66485;SDS011;53303;47.476;8.084;2022-10-15T08:51:02;3.17;;;1.42;;
66485;SDS011;53303;47.476;8.084;2022-10-15T08:53:21;3.22;;;1.42;;
66485;SDS011;53303;47.476;8.084;2022-10-15T08:55:48;3.55;;;1.30;;
66485;SDS011;53303;47.476;8.084;2022-10-15T09:06:18;4.75;;;1.48;;
66485;SDS011;53303;47.476;8.084;2022-10-15T09:13:53;6.57;;;1.83;;
66485;SDS011;53303;47.476;8.084;2022-10-15T09:16:26;3.45;;;1.60;;
66485;SDS011;53303;47.476;8.084;2022-10-15T09:18:59;3.72;;;1.52;;
66485;SDS011;53303;47.476;8.084;2022-10-15T09:24:00;4.03;;;1.70;;
66485;SDS011;53303;47.476;8.084;2022-10-15T09:26:28;4.60;;;1.70;;
66485;SDS011;53303;47.476;8.084;2022-10-15T09:31:49;4.32;;;1.45;;
66485;SDS011;53303;47.476;8.084;2022-10-15T09:34:26;4.65;;;1.80;;
66485;SDS011;53303;47.476;8.084;2022-10-15T09:37:21;4.15;;;1.65;;
66485;SDS011;53303;47.476;8.084;2022-10-15T09:40:02;4.28;;;1.60;;
66485;SDS011;53303;47.476;8.084;2022-10-15T09:42:41;5.15;;;1.77;;
66485;SDS011;53303;47.476;8.084;2022-10-15T09:45:09;4.75;;;1.40;;
66485;SDS011;53303;47.476;8.084;2022-10-15T09:47:38;4.43;;;1.75;;
66485;SDS011;53303;47.476;8.084;2022-10-15T09:50:06;4.35;;;1.42;;
66485;SDS011;53303;47.476;8.084;2022-10-15T10:01:06;6.22;;;2.00;;
66485;SDS011;53303;47.476;8.084;2022-10-15T10:03:40;5.35;;;1.75;;
66485;SDS011;53303;47.476;8.084;2022-10-15T10:06:07;4.22;;;1.83;;
66485;SDS011;53303;47.476;8.084;2022-10-15T10:08:36;4.22;;;1.70;;
66485;SDS011;53303;47.476;8.084;2022-10-15T10:11:05;4.07;;;1.60;;
66485;SDS011;53303;47.476;8.084;2022-10-15T10:13:39;4.57;;;1.75;;
66485;SDS011;53303;47.476;8.084;2022-10-15T10:16:11;3.42;;;1.40;;
66485;SDS011;53303;47.476;8.084;2022-10-15T10:18:38;4.35;;;1.70;;
66485;SDS011;53303;47.476;8.084;2022-10-15T10:21:05;4.13;;;1.67;;
66485;SDS011;53303;47.476;8.084;2022-10-15T10:23:44;3.40;;;1.60;;
66485;SDS011;53303;47.476;8.084;2022-10-15T10:26:12;4.40;;;1.38;;
66485;SDS011;53303;47.476;8.084;2022-10-15T10:31:38;4.57;;;1.45;;
66485;SDS011;53303;47.476;8.084;2022-10-15T10:34:09;4.43;;;1.55;;
66485;SDS011;53303;47.476;8.084;2022-10-15T10:36:41;4.75;;;1.70;;
66485;SDS011;53303;47.476;8.084;2022-10-15T10:41:51;3.95;;;1.55;;
66485;SDS011;53303;47.476;8.084;2022-10-15T10:47:07;3.55;;;1.60;;
66485;SDS011;53303;47.476;8.084;2022-10-15T10:49:54;3.45;;;1.48;;
66485;SDS011;53303;47.476;8.084;2022-10-15T10:52:26;3.78;;;1.50;;
66485;SDS011;53303;47.476;8.084;2022-10-15T10:55:07;4.28;;;1.70;;
66485;SDS011;53303;47.476;8.084;2022-10-15T10:57:47;4.75;;;1.58;;
66485;SDS011;53303;47.476;8.084;2022-10-15T11:00:21;3.45;;;1.23;;
66485;SDS011;53303;47.476;8.084;2022-10-15T11:02:50;5.80;;;1.70;;
66485;SDS011;53303;47.476;8.084;2022-10-15T11:05:24;4.40;;;1.67;;
66485;SDS011;53303;47.476;8.084;2022-10-15T11:10:41;5.00;;;1.60;;
66485;SDS011;53303;47.476;8.084;2022-10-15T11:31:44;4.90;;;1.95;;
66485;SDS011;53303;47.476;8.084;2022-10-15T11:42:31;4.30;;;1.60;;
66485;SDS011;53303;47.476;8.084;2022-10-15T11:56:54;4.45;;;1.80;;
66485;SDS011;53303;47.476;8.084;2022-10-15T12:04:39;3.78;;;1.30;;
66485;SDS011;53303;47.476;8.084;2022-10-15T12:07:14;4.85;;;1.25;;
66485;SDS011;53303;47.476;8.084;2022-10-15T12:09:43;4.72;;;1.40;;
66485;SDS011;53303;47.476;8.084;2022-10-15T12:12:25;3.88;;;1.63;;
66485;SDS011;53303;47.476;8.084;2022-10-15T12:17:41;3.35;;;1.30;;
66485;SDS011;53303;47.476;8.084;2022-10-15T12:20:19;3.05;;;1.23;;
66485;SDS011;53303;47.476;8.084;2022-10-15T12:25:57;5.88;;;1.60;;
66485;SDS011;53303;47.476;8.084;2022-10-15T12:28:13;3.92;;;1.33;;
66485;SDS011;53303;47.476;8.084;2022-10-15T12:35:54;3.17;;;1.10;;
66485;SDS011;53303;47.476;8.084;2022-10-15T12:38:27;3.08;;;1.13;;
66485;SDS011;53303;47.476;8.084;2022-10-15T12:40:59;3.85;;;1.23;;
66485;SDS011;53303;47.476;8.084;2022-10-15T12:44:37;3.92;;;1.60;;
66485;SDS011;53303;47.476;8.084;2022-10-15T12:46:38;3.58;;;1.27;;
66485;SDS011;53303;47.476;8.084;2022-10-15T12:51:52;4.65;;;1.65;;
66485;SDS011;53303;47.476;8.084;2022-10-15T13:00:02;2.72;;;1.20;;
66485;SDS011;53303;47.476;8.084;2022-10-15T13:02:48;2.72;;;1.30;;
66485;SDS011;53303;47.476;8.084;2022-10-15T13:05:24;4.95;;;1.55;;
66485;SDS011;53303;47.476;8.084;2022-10-15T13:07:54;4.20;;;1.38;;
66485;SDS011;53303;47.476;8.084;2022-10-15T13:10:23;3.13;;;1.30;;
66485;SDS011;53303;47.476;8.084;2022-10-15T13:13:04;3.80;;;1.52;;
66485;SDS011;53303;47.476;8.084;2022-10-15T13:15:37;3.30;;;1.48;;
66485;SDS011;53303;47.476;8.084;2022-10-15T13:18:05;3.53;;;1.45;;
66485;SDS011;53303;47.476;8.084;2022-10-15T13:20:35;4.82;;;1.80;;
66485;SDS011;53303;47.476;8.084;2022-10-15T13:23:13;4.05;;;1.50;;
66485;SDS011;53303;47.476;8.084;2022-10-15T13:25:52;3.88;;;1.67;;
66485;SDS011;53303;47.476;8.084;2022-10-15T13:28:36;3.85;;;1.30;;
66485;SDS011;53303;47.476;8.084;2022-10-15T13:31:06;4.30;;;1.75;;
66485;SDS011;53303;47.476;8.084;2022-10-15T13:33:40;3.78;;;1.40;;
66485;SDS011;53303;47.476;8.084;2022-10-15T13:36:07;4.72;;;1.50;;
66485;SDS011;53303;47.476;8.084;2022-10-15T13:38:40;3.97;;;1.20;;
66485;SDS011;53303;47.476;8.084;2022-10-15T13:41:08;3.85;;;1.70;;
66485;SDS011;53303;47.476;8.084;2022-10-15T13:43:33;5.38;;;1.70;;
66485;SDS011;53303;47.476;8.084;2022-10-15T13:45:59;4.05;;;1.42;;
66485;SDS011;53303;47.476;8.084;2022-10-15T13:48:28;4.40;;;1.67;;
66485;SDS011;53303;47.476;8.084;2022-10-15T13:50:59;3.65;;;1.70;;
66485;SDS011;53303;47.476;8.084;2022-10-15T13:53:36;4.00;;;1.70;;
66485;SDS011;53303;47.476;8.084;2022-10-15T13:58:59;4.97;;;1.60;;
66485;SDS011;53303;47.476;8.084;2022-10-15T14:01:27;3.55;;;1.73;;
66485;SDS011;53303;47.476;8.084;2022-10-15T14:04:00;5.22;;;1.60;;
66485;SDS011;53303;47.476;8.084;2022-10-15T14:06:38;3.38;;;1.27;;
66485;SDS011;53303;47.476;8.084;2022-10-15T14:09:48;3.05;;;1.35;;
66485;SDS011;53303;47.476;8.084;2022-10-15T14:11:59;4.32;;;1.65;;
66485;SDS011;53303;47.476;8.084;2022-10-15T14:14:29;3.50;;;1.38;;
66485;SDS011;53303;47.476;8.084;2022-10-15T14:16:55;3.92;;;1.48;;
66485;SDS011;53303;47.476;8.084;2022-10-15T14:19:24;4.35;;;1.80;;
66485;SDS011;53303;47.476;8.084;2022-10-15T14:21:54;3.95;;;1.77;;
66485;SDS011;53303;47.476;8.084;2022-10-15T14:24:26;5.30;;;1.58;;
66485;SDS011;53303;47.476;8.084;2022-10-15T14:26:59;5.18;;;1.92;;
66485;SDS011;53303;47.476;8.084;2022-10-15T14:29:28;4.40;;;1.52;;
66485;SDS011;53303;47.476;8.084;2022-10-15T14:32:01;5.75;;;1.80;;
66485;SDS011;53303;47.476;8.084;2022-10-15T14:36:58;4.63;;;1.73;;
66485;SDS011;53303;47.476;8.084;2022-10-15T14:39:31;4.28;;;1.60;;
66485;SDS011;53303;47.476;8.084;2022-10-15T14:42:04;5.57;;;1.88;;
66485;SDS011;53303;47.476;8.084;2022-10-15T14:44:43;5.97;;;2.13;;
66485;SDS011;53303;47.476;8.084;2022-10-15T14:47:21;4.65;;;1.80;;
66485;SDS011;53303;47.476;8.084;2022-10-15T14:49:50;4.60;;;1.80;;
66485;SDS011;53303;47.476;8.084;2022-10-15T14:52:19;5.30;;;1.98;;
66485;SDS011;53303;47.476;8.084;2022-10-15T14:54:55;4.72;;;1.70;;
66485;SDS011;53303;47.476;8.084;2022-10-15T14:57:24;5.63;;;1.65;;
66485;SDS011;53303;47.476;8.084;2022-10-15T14:59:52;4.70;;;2.10;;
66485;SDS011;53303;47.476;8.084;2022-10-15T15:02:19;3.88;;;1.80;;
66485;SDS011;53303;47.476;8.084;2022-10-15T15:07:32;6.95;;;2.10;;
66485;SDS011;53303;47.476;8.084;2022-10-15T15:09:57;3.90;;;1.70;;
66485;SDS011;53303;47.476;8.084;2022-10-15T15:12:25;5.35;;;2.10;;
66485;SDS011;53303;47.476;8.084;2022-10-15T15:14:52;5.40;;;1.98;;
66485;SDS011;53303;47.476;8.084;2022-10-15T15:17:21;5.63;;;2.10;;
66485;SDS011;53303;47.476;8.084;2022-10-15T15:19:51;4.78;;;1.77;;
66485;SDS011;53303;47.476;8.084;2022-10-15T15:22:31;4.35;;;1.90;;
66485;SDS011;53303;47.476;8.084;2022-10-15T15:24:59;4.72;;;1.83;;
66485;SDS011;53303;47.476;8.084;2022-10-15T15:27:27;4.93;;;1.50;;
66485;SDS011;53303;47.476;8.084;2022-10-15T15:30:01;4.50;;;1.77;;
66485;SDS011;53303;47.476;8.084;2022-10-15T15:32:27;5.55;;;2.00;;
66485;SDS011;53303;47.476;8.084;2022-10-15T15:34:52;4.13;;;1.50;;
66485;SDS011;53303;47.476;8.084;2022-10-15T15:37:20;4.32;;;1.60;;
66485;SDS011;53303;47.476;8.084;2022-10-15T15:39:50;4.45;;;1.40;;
66485;SDS011;53303;47.476;8.084;2022-10-15T15:42:17;6.88;;;1.90;;
66485;SDS011;53303;47.476;8.084;2022-10-15T15:44:47;6.80;;;1.60;;
66485;SDS011;53303;47.476;8.084;2022-10-15T15:47:12;3.75;;;1.42;;
66485;SDS011;53303;47.476;8.084;2022-10-15T15:49:38;4.57;;;1.30;;
66485;SDS011;53303;47.476;8.084;2022-10-15T15:52:05;3.15;;;1.40;;
66485;SDS011;53303;47.476;8.084;2022-10-15T15:54:36;3.72;;;1.42;;
66485;SDS011;53303;47.476;8.084;2022-10-15T15:57:01;3.35;;;1.42;;
66485;SDS011;53303;47.476;8.084;2022-10-15T15:59:27;4.40;;;1.60;;
66485;SDS011;53303;47.476;8.084;2022-10-15T16:01:52;4.15;;;1.40;;
66485;SDS011;53303;47.476;8.084;2022-10-15T16:04:18;3.08;;;1.27;;
66485;SDS011;53303;47.476;8.084;2022-10-15T16:06:44;3.72;;;1.20;;
66485;SDS011;53303;47.476;8.084;2022-10-15T16:09:12;2.60;;;1.05;;
66485;SDS011;53303;47.476;8.084;2022-10-15T16:11:42;3.13;;;1.35;;
66485;SDS011;53303;47.476;8.084;2022-10-15T16:14:07;4.15;;;1.27;;
66485;SDS011;53303;47.476;8.084;2022-10-15T16:16:33;3.40;;;1.20;;
66485;SDS011;53303;47.476;8.084;2022-10-15T16:18:59;3.65;;;1.42;;
66485;SDS011;53303;47.476;8.084;2022-10-15T16:21:27;3.20;;;1.13;;
66485;SDS011;53303;47.476;8.084;2022-10-15T16:23:53;3.47;;;1.13;;
66485;SDS011;53303;47.476;8.084;2022-10-15T16:26:18;3.90;;;1.17;;
66485;SDS011;53303;47.476;8.084;2022-10-15T16:28:44;2.83;;;1.27;;
66485;SDS011;53303;47.476;8.084;2022-10-15T16:31:17;8.48;;;1.40;;
66485;SDS011;53303;47.476;8.084;2022-10-15T16:33:51;31.77;;;3.15;;
66485;SDS011;53303;47.476;8.084;2022-10-15T16:36:17;46.92;;;4.90;;
66485;SDS011;53303;47.476;8.084;2022-10-15T16:38:43;108.50;;;10.75;;
66485;SDS011;53303;47.476;8.084;2022-10-15T16:41:10;187.57;;;15.82;;
66485;SDS011;53303;47.476;8.084;2022-10-15T16:43:37;130.90;;;10.20;;
66485;SDS011;53303;47.476;8.084;2022-10-15T16:46:05;117.05;;;10.45;;
66485;SDS011;53303;47.476;8.084;2022-10-15T16:48:31;145.90;;;13.23;;
66485;SDS011;53303;47.476;8.084;2022-10-15T16:51:04;112.22;;;10.10;;
66485;SDS011;53303;47.476;8.084;2022-10-15T16:53:33;134.10;;;10.63;;
66485;SDS011;53303;47.476;8.084;2022-10-15T16:56:06;109.45;;;9.27;;
66485;SDS011;53303;47.476;8.084;2022-10-15T16:58:38;95.63;;;9.20;;
66485;SDS011;53303;47.476;8.084;2022-10-15T17:01:05;89.95;;;8.90;;
66485;SDS011;53303;47.476;8.084;2022-10-15T17:03:33;87.43;;;8.48;;
66485;SDS011;53303;47.476;8.084;2022-10-15T17:06:01;91.25;;;9.18;;
66485;SDS011;53303;47.476;8.084;2022-10-15T17:08:49;68.68;;;7.53;;
66485;SDS011;53303;47.476;8.084;2022-10-15T17:13:45;42.25;;;4.72;;
66485;SDS011;53303;47.476;8.084;2022-10-15T17:16:14;46.47;;;5.38;;
66485;SDS011;53303;47.476;8.084;2022-10-15T17:18:47;31.40;;;3.88;;
66485;SDS011;53303;47.476;8.084;2022-10-15T17:21:15;43.40;;;4.82;;
66485;SDS011;53303;47.476;8.084;2022-10-15T17:23:42;34.42;;;3.72;;
66485;SDS011;53303;47.476;8.084;2022-10-15T17:26:09;32.55;;;3.72;;
66485;SDS011;53303;47.476;8.084;2022-10-15T17:28:37;30.25;;;3.70;;
66485;SDS011;53303;47.476;8.084;2022-10-15T17:31:08;28.38;;;3.45;;